Atlanta, Georgia
Traffic Map
Current Weather Conditions
Atlanta, Georgia
Scattered Clouds
Scattered Clouds
78°
Feels Like: 80°
Wind Chill: 78° Ceiling: Unl
Heat Index: 80° Visibility: 10mi
Dew Point: 68° Wind: 0mph
Humidity: 71% Direction: ° ()
Pressure: 29.96in Gusts: 0mph
Raw Report DataKATL 031252Z 00000KT 10SM FEW100 SCT250 26/20 A2996 RMK AO2 SLP134 T02560200
Traffic Incident Summary
Active as of:
Severity:
Category:
InformationThere was an issue retrieving the traffic information for this location. Please try a different location or try again shortly.
Advertisements
Track Severe Weather on mobile